Wicksville, South Dakota
Current Conditions -  °F | °C
As of 3:34 AM on Thursday 27 Nov 2014 (Local Time) from KRAP Reporting Station
Overcast Overcast  
Wind Chill: 11°   Ceiling: 1000
Heat Index: 20°   Visibility: 10mi
Dew Point: 18°   Wind: 7mph
Humidity: 92%   Direction: 150°SSE
Pressure: 30.19"   Gusts: NA
Location:  44.0702°N, 102.553°W
Report Text: KRAP 271034Z AUTO 15006KT 10SM SCT004 OVC010 M07/M08 A3019 RMK AO2 T10671078
Loading
Personal Weather Stations






























Interactive Weather Map New forecast layout! Learn more

10-Day Weather Forecast

Advertisements
Track Severe Weather on mobile